createdAt,value
2022-09-18T00:02:00.673Z,99178.00
2022-09-18T00:06:59.826Z,99175.00
2022-09-18T00:12:00.209Z,99167.60
2022-09-18T00:16:59.475Z,99172.00
2022-09-18T00:21:58.663Z,99171.60
2022-09-18T00:26:57.217Z,99166.20
2022-09-18T00:31:56.528Z,99176.20
2022-09-18T00:36:55.715Z,99179.20
2022-09-18T00:41:54.194Z,99178.40
2022-09-18T00:46:53.983Z,99176.40
2022-09-18T00:51:57.157Z,99182.00
2022-09-18T00:57:01.799Z,99178.80
2022-09-18T01:02:02.281Z,99174.80
2022-09-18T01:07:16.081Z,99178.80
2022-09-18T01:12:31.862Z,99177.20
2022-09-18T01:17:40.467Z,99174.20
2022-09-18T01:22:55.248Z,99178.40
2022-09-18T01:28:20.830Z,99172.20
2022-09-18T01:33:32.869Z,99173.20
2022-09-18T01:38:37.594Z,99169.60
2022-09-18T01:43:42.734Z,99165.80
2022-09-18T01:48:51.365Z,99165.80
2022-09-18T01:53:56.128Z,99158.00
2022-09-18T01:58:59.174Z,99159.20
2022-09-18T02:04:12.941Z,99151.40
2022-09-18T02:09:14.386Z,99144.00
2022-09-18T02:14:20.585Z,99147.80
2022-09-18T02:19:39.754Z,99142.80
2022-09-18T02:24:44.472Z,99141.80
2022-09-18T02:29:47.122Z,99140.60
2022-09-18T02:34:46.725Z,99141.20
2022-09-18T02:40:06.293Z,99146.40
2022-09-18T02:45:19.350Z,99149.20
2022-09-18T02:50:30.307Z,99149.20
2022-09-18T02:55:40.888Z,99139.60
2022-09-18T03:00:45.183Z,99132.40
2022-09-18T03:05:48.465Z,99129.60
2022-09-18T03:10:48.862Z,99125.20
2022-09-18T03:15:48.600Z,99118.40
2022-09-18T03:20:47.848Z,99119.80
2022-09-18T03:25:52.067Z,99112.60
2022-09-18T03:30:51.376Z,99112.00
2022-09-18T03:35:53.413Z,99113.00
2022-09-18T03:40:52.319Z,99121.20
2022-09-18T03:45:51.906Z,99126.00
2022-09-18T03:50:52.432Z,99137.00
2022-09-18T03:55:54.191Z,99142.60
2022-09-18T04:00:53.427Z,99145.20
2022-09-18T04:05:55.344Z,99155.20
2022-09-18T04:11:13.507Z,99162.20
2022-09-18T04:16:13.186Z,99157.60
2022-09-18T04:21:14.559Z,99158.20
2022-09-18T04:26:13.198Z,99156.60
2022-09-18T04:31:19.074Z,99156.20
2022-09-18T04:36:19.788Z,99157.00
2022-09-18T04:41:19.003Z,99154.60
2022-09-18T04:46:18.397Z,99152.60
2022-09-18T04:51:17.722Z,99157.40
2022-09-18T04:56:22.389Z,99151.60
2022-09-18T05:01:23.616Z,99153.60
2022-09-18T05:06:23.175Z,99154.00
2022-09-18T05:11:22.718Z,99153.40
2022-09-18T05:16:21.844Z,99158.00
2022-09-18T05:21:30.572Z,99158.40
2022-09-18T05:26:30.498Z,99157.80
2022-09-18T05:31:30.336Z,99157.80
2022-09-18T05:36:30.083Z,99156.60
2022-09-18T05:41:29.183Z,99154.60
2022-09-18T05:46:28.678Z,99152.20
2022-09-18T05:51:32.070Z,99153.20
2022-09-18T05:56:30.981Z,99158.40
2022-09-18T06:01:30.906Z,99152.60
2022-09-18T06:06:40.522Z,99150.40
2022-09-18T06:11:41.403Z,99153.40
2022-09-18T06:16:42.497Z,99154.00
2022-09-18T06:21:43.444Z,99153.20
2022-09-18T06:26:44.560Z,99159.60
2022-09-18T06:31:42.999Z,99159.20
2022-09-18T06:36:43.542Z,99163.40
2022-09-18T06:42:09.114Z,99161.20
2022-09-18T06:47:33.710Z,99166.00
2022-09-18T06:52:34.520Z,99167.40
2022-09-18T06:57:35.290Z,99168.20
2022-09-18T07:02:34.386Z,99172.00
2022-09-18T07:08:09.496Z,99172.00
2022-09-18T07:13:10.822Z,99171.40
2022-09-18T07:18:15.020Z,99171.20
2022-09-18T07:23:14.202Z,99168.60
2022-09-18T07:28:19.387Z,99173.60
2022-09-18T07:33:27.982Z,99180.80
2022-09-18T07:38:27.327Z,99177.80
2022-09-18T07:43:28.148Z,99179.80
2022-09-18T07:48:29.620Z,99177.00
2022-09-18T07:53:37.736Z,99184.60
2022-09-18T07:58:37.234Z,99184.80
2022-09-18T08:03:41.385Z,99185.80
2022-09-18T08:08:45.166Z,99185.60
2022-09-18T08:13:55.943Z,99186.60
2022-09-18T08:19:07.843Z,99194.00
2022-09-18T08:24:25.378Z,99192.20
2022-09-18T08:29:26.060Z,99188.80
2022-09-18T08:34:31.481Z,99185.00
2022-09-18T08:39:31.229Z,99187.20
2022-09-18T08:44:55.785Z,99184.40
2022-09-18T08:50:06.384Z,99188.60
2022-09-18T08:55:16.079Z,99187.80
2022-09-18T09:00:39.948Z,99185.80
2022-09-18T09:05:59.373Z,99191.80
2022-09-18T09:11:12.733Z,99198.40
2022-09-18T09:16:19.749Z,99197.40
2022-09-18T09:21:38.059Z,99201.60
2022-09-18T09:26:39.129Z,99204.60
2022-09-18T09:31:52.702Z,99207.80
2022-09-18T09:37:40.675Z,99202.40
2022-09-18T09:42:50.645Z,99199.40
2022-09-18T09:47:57.827Z,99207.40
2022-09-18T09:53:02.632Z,99209.60
2022-09-18T09:58:20.698Z,99217.80
2022-09-18T10:03:40.228Z,99211.60
2022-09-18T10:08:49.181Z,99213.00
2022-09-18T10:13:53.302Z,99217.40
2022-09-18T10:18:52.949Z,99215.20
2022-09-18T10:24:02.225Z,99224.60
2022-09-18T10:29:02.786Z,99222.40
2022-09-18T10:34:05.007Z,99229.60
2022-09-18T10:39:21.547Z,99224.20
2022-09-18T10:44:32.006Z,99229.20
2022-09-18T10:49:41.191Z,99227.40
2022-09-18T10:54:41.435Z,99229.40
2022-09-18T10:59:41.638Z,99228.60
2022-09-18T11:04:41.423Z,99235.60
2022-09-18T11:09:44.618Z,99233.20
2022-09-18T11:14:49.736Z,99230.80
2022-09-18T11:19:58.696Z,99230.40
2022-09-18T11:25:24.330Z,99239.00
2022-09-18T11:30:29.259Z,99238.00
2022-09-18T11:35:34.309Z,99249.00
2022-09-18T11:40:45.178Z,99233.20
2022-09-18T11:45:58.346Z,99232.80
2022-09-18T11:51:03.082Z,99239.40
2022-09-18T11:56:13.132Z,99239.20
2022-09-18T12:01:27.526Z,99233.60
2022-09-18T12:06:38.627Z,99234.20
2022-09-18T12:11:44.921Z,99229.60
2022-09-18T12:16:52.705Z,99232.40
2022-09-18T12:22:03.027Z,99230.60
2022-09-18T12:27:27.669Z,99227.20
2022-09-18T12:32:54.051Z,99232.40
2022-09-18T12:38:10.773Z,99227.80
2022-09-18T12:43:33.374Z,99225.80
2022-09-18T12:48:54.459Z,99226.40
2022-09-18T12:54:06.843Z,99228.20
2022-09-18T12:59:25.011Z,99227.20
2022-09-18T13:04:31.072Z,99230.60
2022-09-18T13:09:36.093Z,99237.20
2022-09-18T13:14:42.476Z,99240.20
2022-09-18T13:19:47.939Z,99239.60
2022-09-18T13:24:51.196Z,99245.80
2022-09-18T13:30:01.051Z,99252.60
2022-09-18T13:35:04.791Z,99254.20
2022-09-18T13:40:10.695Z,99257.20
2022-09-18T13:45:22.272Z,99258.60
2022-09-18T13:50:22.831Z,99258.00
2022-09-18T13:55:49.794Z,99263.20
2022-09-18T14:00:48.767Z,99261.60
2022-09-18T14:05:47.716Z,99274.60
2022-09-18T14:11:16.295Z,99274.00
2022-09-18T14:16:43.789Z,99277.20
2022-09-18T14:21:46.308Z,99281.00
2022-09-18T14:27:34.861Z,99280.80
2022-09-18T14:32:35.904Z,99278.20
2022-09-18T14:37:39.008Z,99283.40
2022-09-18T14:42:41.959Z,99279.60
2022-09-18T14:47:42.593Z,99273.40
2022-09-18T14:52:47.773Z,99280.60
2022-09-18T14:57:50.602Z,99280.80
2022-09-18T15:02:55.308Z,99291.80
2022-09-18T15:08:02.146Z,99290.40
2022-09-18T15:13:03.893Z,99282.60
2022-09-18T15:18:03.767Z,99283.20
2022-09-18T15:23:18.470Z,99277.40
2022-09-18T15:28:19.161Z,99278.00
2022-09-18T15:33:25.781Z,99277.40
2022-09-18T15:38:37.053Z,99274.20
2022-09-18T15:43:43.751Z,99281.00
2022-09-18T15:48:48.349Z,99277.80
2022-09-18T15:54:28.922Z,99285.40
2022-09-18T15:59:35.473Z,99289.00
2022-09-18T16:04:36.929Z,99281.40
2022-09-18T16:09:52.676Z,99286.40
2022-09-18T16:15:15.327Z,99283.60
2022-09-18T16:20:34.166Z,99283.60
2022-09-18T16:25:37.607Z,99282.00
2022-09-18T16:30:37.802Z,99285.60
2022-09-18T16:35:36.264Z,99284.40
2022-09-18T16:40:35.971Z,99284.20
2022-09-18T16:45:34.768Z,99286.20
2022-09-18T16:50:33.826Z,99285.00
2022-09-18T16:55:33.946Z,99283.00
2022-09-18T17:00:33.825Z,99281.60
2022-09-18T17:05:35.847Z,99286.20
2022-09-18T17:10:35.799Z,99286.00
2022-09-18T17:15:35.679Z,99286.80
2022-09-18T17:20:35.258Z,99282.20
2022-09-18T17:25:34.881Z,99285.20
2022-09-18T17:30:33.594Z,99287.60
2022-09-18T17:35:36.220Z,99286.60
2022-09-18T17:40:35.317Z,99287.60
2022-09-18T17:45:36.723Z,99292.00
2022-09-18T17:50:37.253Z,99294.00
2022-09-18T17:55:38.232Z,99291.60
2022-09-18T18:00:41.080Z,99295.00
2022-09-18T18:05:40.118Z,99290.00
2022-09-18T18:10:41.873Z,99295.20
2022-09-18T18:15:40.880Z,99309.80
2022-09-18T18:20:40.233Z,99315.00
2022-09-18T18:25:40.721Z,99318.00
2022-09-18T18:30:44.052Z,99325.00
2022-09-18T18:35:43.703Z,99330.80
2022-09-18T18:40:42.687Z,99326.60
2022-09-18T18:45:54.003Z,99336.60
2022-09-18T18:50:58.398Z,99338.40
2022-09-18T18:56:01.060Z,99343.00
2022-09-18T19:01:04.479Z,99348.00
2022-09-18T19:06:04.034Z,99354.80
2022-09-18T19:11:03.889Z,99352.40
2022-09-18T19:16:08.282Z,99354.40
2022-09-18T19:21:10.366Z,99355.20
2022-09-18T19:26:11.432Z,99362.60
2022-09-18T19:31:11.165Z,99365.60
2022-09-18T19:36:11.766Z,99360.40
2022-09-18T19:41:20.025Z,99366.60
2022-09-18T19:46:27.381Z,99357.40
2022-09-18T19:51:27.229Z,99361.00
2022-09-18T19:56:42.026Z,99362.00
2022-09-18T20:01:41.942Z,99357.40
2022-09-18T20:06:42.628Z,99357.60
2022-09-18T20:11:43.501Z,99355.00
2022-09-18T20:16:45.020Z,99350.40
2022-09-18T20:21:44.281Z,99349.20
2022-09-18T20:26:45.054Z,99354.60
2022-09-18T20:31:46.109Z,99347.80
2022-09-18T20:36:47.605Z,99338.80
2022-09-18T20:41:46.704Z,99334.20
2022-09-18T20:46:45.671Z,99332.80
2022-09-18T20:51:45.873Z,99330.40
2022-09-18T20:56:46.331Z,99330.40
2022-09-18T21:01:47.051Z,99324.20
2022-09-18T21:06:47.575Z,99324.20
2022-09-18T21:11:50.005Z,99318.40
2022-09-18T21:16:50.253Z,99312.80
2022-09-18T21:21:50.584Z,99317.20
2022-09-18T21:26:51.826Z,99317.60
2022-09-18T21:31:53.529Z,99317.60
2022-09-18T21:36:54.028Z,99315.80
2022-09-18T21:41:53.456Z,99316.00
2022-09-18T21:46:52.783Z,99313.80
2022-09-18T21:51:57.663Z,99315.40
2022-09-18T21:56:56.986Z,99321.40
2022-09-18T22:01:56.904Z,99310.20
2022-09-18T22:06:58.910Z,99308.00
2022-09-18T22:12:00.340Z,99309.80
2022-09-18T22:16:59.741Z,99318.60
2022-09-18T22:21:58.408Z,99313.20
2022-09-18T22:27:01.034Z,99318.00
2022-09-18T22:32:01.326Z,99319.00
2022-09-18T22:37:03.478Z,99322.00
2022-09-18T22:42:02.110Z,99320.60
2022-09-18T22:47:02.402Z,99324.00
2022-09-18T22:52:04.014Z,99327.60
2022-09-18T22:57:03.637Z,99332.60
2022-09-18T23:02:05.919Z,99331.00
2022-09-18T23:07:05.028Z,99334.80
2022-09-18T23:12:04.854Z,99337.80
2022-09-18T23:17:04.545Z,99331.40
2022-09-18T23:22:03.999Z,99331.40
2022-09-18T23:27:03.367Z,99332.80
2022-09-18T23:32:02.844Z,99333.20
2022-09-18T23:37:02.884Z,99330.60
2022-09-18T23:42:03.518Z,99328.40
2022-09-18T23:47:03.176Z,99320.60
2022-09-18T23:52:03.635Z,99313.00
2022-09-18T23:57:04.162Z,99314.80
